Saluda Gardens, South Carolina
Current Conditions -  °F | °C
As of 8:56 AM on Tuesday 21 Oct 2014 (Local Time) from KCAE Reporting Station
Clear Clear  
Wind Chill: 57°   Ceiling: Unl
Heat Index: 57°   Visibility: 10mi
Dew Point: 51°   Wind: 5mph
Humidity: 81%   Direction: 240°WSW
Pressure: 29.98"   Gusts: NA
Location:  33.9973°N, 81.0998°W
Report Text: KCAE 211256Z 24004KT 10SM CLR 14/11 A2998 RMK AO2 SLP149 T01390106
Loading
Personal Weather Stations






























Interactive Weather Map
Tropical Storm Tracking
New forecast layout! Learn more

10-Day Weather Forecast

Advertisements
Track Severe Weather on mobile